Time;durP1;ratioP1;P1;durP2;ratioP2;P2;SDS_P1;SDS_P2;PMS_P1;PMS_P2;Temp;Humidity;BMP_temperature;BMP_pressure;BME280_temperature;BME280_humidity;BME280_pressure;Samples;Min_cycle;Max_cycle;Signal;HPM_P1;HPM_P2
2021/01/31 00:00:24;;;;;;;17.85;11.05;;;-1.50;99.90;;;;;;5093887;28;20643;-80
2021/01/31 00:02:50;;;;;;;18.33;11.80;;;-1.50;99.90;;;;;;5094235;28;20192;-80
2021/01/31 00:05:17;;;;;;;17.50;12.43;;;-1.50;99.90;;;;;;5094278;28;20216;-80
2021/01/31 00:07:44;;;;;;;15.68;10.73;;;-1.50;99.90;;;;;;5094158;28;20197;-80
2021/01/31 00:10:13;;;;;;;16.75;11.50;;;-1.50;99.90;;;;;;5093828;28;20559;-80
2021/01/31 00:12:39;;;;;;;16.17;11.82;;;-1.50;99.90;;;;;;5093326;28;20266;-80
2021/01/31 00:15:17;;;;;;;13.93;10.90;;;-1.50;99.90;;;;;;5093657;28;20185;-82
2021/01/31 00:17:44;;;;;;;15.40;10.98;;;-1.60;99.90;;;;;;5091425;28;20192;-82
2021/01/31 00:20:12;;;;;;;13.68;10.35;;;-1.60;99.90;;;;;;5094054;28;20334;-80
2021/01/31 00:22:39;;;;;;;14.60;11.27;;;-1.60;99.90;;;;;;5093296;28;20202;-80
2021/01/31 00:25:07;;;;;;;16.00;10.60;;;-1.60;99.90;;;;;;5094366;28;20220;-80
2021/01/31 00:27:33;;;;;;;15.00;9.98;;;-1.70;99.90;;;;;;5094344;28;20193;-80
2021/01/31 00:29:59;;;;;;;13.13;8.98;;;-1.70;99.90;;;;;;5094353;28;20283;-80
2021/01/31 00:32:27;;;;;;;15.13;10.20;;;-1.70;99.90;;;;;;5094291;28;20216;-80
2021/01/31 00:34:56;;;;;;;13.88;9.85;;;-1.70;99.90;;;;;;5094241;28;20189;-80
2021/01/31 00:37:23;;;;;;;13.57;9.52;;;-1.70;99.90;;;;;;5093896;28;20201;-80
2021/01/31 00:39:50;;;;;;;12.88;8.80;;;-1.70;99.90;;;;;;5093843;28;20283;-80
2021/01/31 00:42:20;;;;;;;10.13;7.90;;;-1.70;99.90;;;;;;5093659;28;20196;-81
2021/01/31 00:44:48;;;;;;;13.38;8.05;;;-1.80;99.90;;;;;;5093255;28;20204;-80
2021/01/31 00:47:15;;;;;;;13.02;8.23;;;-1.80;99.90;;;;;;5093339;28;20615;-80
2021/01/31 00:49:43;;;;;;;10.73;7.70;;;-1.80;99.90;;;;;;5093440;28;20185;-80
2021/01/31 00:52:10;;;;;;;11.23;8.07;;;-1.80;99.90;;;;;;5093313;28;20234;-80
2021/01/31 00:54:36;;;;;;;11.07;8.05;;;-1.90;99.90;;;;;;5092954;28;20268;-80
2021/01/31 00:57:02;;;;;;;12.43;8.15;;;-1.80;99.90;;;;;;5092666;28;20218;-80
2021/01/31 00:59:29;;;;;;;9.98;7.55;;;-1.80;99.90;;;;;;5093348;28;20674;-80
2021/01/31 01:01:55;;;;;;;11.80;7.25;;;-1.90;99.90;;;;;;5093284;28;20188;-80
2021/01/31 01:04:21;;;;;;;9.60;7.20;;;-1.90;99.90;;;;;;5092626;28;20558;-81
2021/01/31 01:06:47;;;;;;;9.45;7.80;;;-1.90;99.90;;;;;;5092648;28;20486;-81
2021/01/31 01:09:13;;;;;;;11.35;7.78;;;-1.90;99.90;;;;;;5093252;28;20283;-81
2021/01/31 01:11:39;;;;;;;11.95;8.43;;;-1.90;99.90;;;;;;5093351;28;20192;-80
2021/01/31 01:14:06;;;;;;;12.98;8.82;;;-1.90;99.90;;;;;;5092673;28;20199;-80
2021/01/31 01:16:33;;;;;;;15.18;10.23;;;-2.00;99.90;;;;;;5093147;28;20283;-80
2021/01/31 01:18:59;;;;;;;12.48;9.45;;;-2.00;99.90;;;;;;5092878;28;20295;-80
2021/01/31 01:21:25;;;;;;;11.60;8.23;;;-2.00;99.90;;;;;;5093192;28;20188;-80
2021/01/31 01:23:51;;;;;;;13.52;9.57;;;-2.10;99.90;;;;;;5092564;28;20287;-80
2021/01/31 01:26:17;;;;;;;13.90;9.55;;;-2.10;99.90;;;;;;5092593;28;20307;-80
2021/01/31 01:28:43;;;;;;;12.32;9.68;;;-2.10;99.90;;;;;;5092964;28;20279;-80
2021/01/31 01:31:09;;;;;;;13.95;9.65;;;-2.10;99.90;;;;;;5092842;28;20616;-80
2021/01/31 01:33:36;;;;;;;13.83;8.90;;;-2.20;99.90;;;;;;5092565;28;20225;-81
2021/01/31 01:36:03;;;;;;;13.10;8.45;;;-2.20;99.90;;;;;;5092742;28;20537;-81
2021/01/31 01:38:29;;;;;;;11.35;9.27;;;-2.20;99.90;;;;;;5092895;28;20188;-81
2021/01/31 01:40:56;;;;;;;11.25;8.68;;;-2.30;99.90;;;;;;5092348;28;20346;-81
2021/01/31 01:43:22;;;;;;;11.98;9.23;;;-2.30;99.90;;;;;;5092785;28;20196;-81
2021/01/31 01:46:10;;;;;;;11.73;8.20;;;-2.30;99.90;;;;;;5092684;28;20235;-81
2021/01/31 01:48:38;;;;;;;14.10;9.55;;;-2.40;99.90;;;;;;5092871;28;20276;-81
2021/01/31 01:51:04;;;;;;;9.82;6.75;;;-2.40;99.90;;;;;;5092755;28;20199;-80
2021/01/31 01:53:30;;;;;;;14.32;8.93;;;-2.50;99.90;;;;;;5092762;28;20267;-80
2021/01/31 01:56:05;;;;;;;11.73;8.85;;;-2.50;99.90;;;;;;5092715;28;20590;-80
2021/01/31 01:58:32;;;;;;;11.55;8.70;;;-2.50;99.90;;;;;;5092614;28;20282;-80
2021/01/31 02:00:59;;;;;;;12.27;8.95;;;-2.50;99.90;;;;;;5092816;28;20289;-80
2021/01/31 02:03:29;;;;;;;10.93;8.48;;;-2.50;99.90;;;;;;5091180;28;20218;-80
2021/01/31 02:06:00;;;;;;;10.55;8.68;;;-2.60;99.90;;;;;;5092702;28;20287;-80
2021/01/31 02:08:26;;;;;;;12.77;9.23;;;-2.50;99.90;;;;;;5092588;28;20193;-80
2021/01/31 02:10:52;;;;;;;13.40;10.23;;;-2.50;99.90;;;;;;5095872;28;20287;-81
2021/01/31 02:13:19;;;;;;;14.30;10.50;;;-2.50;99.90;;;;;;5096257;28;20613;-81
2021/01/31 02:15:45;;;;;;;11.55;8.88;;;-2.60;99.90;;;;;;5096514;28;20275;-82
2021/01/31 02:18:23;;;;;;;13.88;9.48;;;-2.60;99.90;;;;;;5096421;28;20199;-78
2021/01/31 02:21:25;;;;;;;14.48;9.80;;;-2.60;99.90;;;;;;5096442;28;20215;-78
2021/01/31 02:24:20;;;;;;;14.02;9.23;;;-2.70;99.90;;;;;;5096118;28;20192;-78
2021/01/31 02:27:13;;;;;;;16.75;9.63;;;-2.70;99.90;;;;;;5096187;28;20220;-78
2021/01/31 02:30:12;;;;;;;13.68;8.70;;;-2.80;99.90;;;;;;5096147;28;20275;-78
2021/01/31 02:33:08;;;;;;;9.27;7.97;;;-2.80;99.90;;;;;;5095983;28;20222;-78
2021/01/31 02:35:36;;;;;;;16.45;10.82;;;-2.90;99.90;;;;;;5095959;28;20193;-78
2021/01/31 02:38:11;;;;;;;12.88;9.27;;;-3.00;99.90;;;;;;5095994;28;20287;-78
2021/01/31 02:40:51;;;;;;;14.23;9.63;;;-3.00;99.90;;;;;;5095934;28;20283;-78
2021/01/31 02:43:24;;;;;;;17.75;11.10;;;-3.00;99.90;;;;;;5095969;28;20193;-78
2021/01/31 02:45:56;;;;;;;13.55;8.88;;;-3.00;99.90;;;;;;5095723;28;20688;-78
2021/01/31 02:48:29;;;;;;;14.75;10.18;;;-3.10;99.90;;;;;;5095710;28;20196;-78
2021/01/31 02:51:00;;;;;;;13.20;9.02;;;-3.10;99.90;;;;;;5095523;28;20287;-78
2021/01/31 02:53:30;;;;;;;15.20;9.73;;;-3.10;99.90;;;;;;5095660;28;20263;-78
2021/01/31 02:56:02;;;;;;;12.32;9.80;;;-3.10;99.90;;;;;;5095873;28;20283;-78
2021/01/31 02:58:34;;;;;;;14.27;9.98;;;-3.10;99.90;;;;;;5095653;28;20298;-78
2021/01/31 03:01:07;;;;;;;13.40;8.77;;;-3.10;99.90;;;;;;5095610;28;20189;-78
2021/01/31 03:03:40;;;;;;;15.23;10.27;;;-3.10;99.90;;;;;;5095714;28;20245;-78
2021/01/31 03:06:12;;;;;;;17.48;9.57;;;-3.20;99.90;;;;;;5095552;28;20307;-78
2021/01/31 03:08:41;;;;;;;16.90;9.95;;;-3.20;99.90;;;;;;5095481;28;20280;-78
2021/01/31 03:11:11;;;;;;;13.00;9.43;;;-3.20;99.90;;;;;;5095384;28;20279;-78
2021/01/31 03:13:45;;;;;;;13.25;9.10;;;-3.20;99.90;;;;;;5094990;28;20281;-78
2021/01/31 03:16:16;;;;;;;12.18;8.70;;;-3.20;99.90;;;;;;5095403;28;20416;-78
2021/01/31 03:18:50;;;;;;;11.98;9.05;;;-3.20;99.90;;;;;;5095236;28;20633;-79
2021/01/31 03:21:20;;;;;;;15.32;9.80;;;-3.20;99.90;;;;;;5094637;28;20275;-78
2021/01/31 03:23:53;;;;;;;11.75;8.30;;;-3.30;99.90;;;;;;5094993;28;20645;-78
2021/01/31 03:26:24;;;;;;;13.20;8.88;;;-3.30;99.90;;;;;;5094914;28;20216;-79
2021/01/31 03:28:50;;;;;;;12.55;8.50;;;-3.30;99.90;;;;;;5095086;28;20203;-79
2021/01/31 03:31:19;;;;;;;11.80;8.93;;;-3.20;99.90;;;;;;5094385;28;20189;-78
2021/01/31 03:33:53;;;;;;;13.20;9.00;;;-3.20;99.90;;;;;;5092979;28;20539;-78
2021/01/31 03:36:22;;;;;;;15.35;9.20;;;-3.20;99.90;;;;;;5094907;28;20287;-79
2021/01/31 03:38:52;;;;;;;15.10;8.93;;;-3.10;99.90;;;;;;5094607;28;20284;-78
2021/01/31 03:41:22;;;;;;;14.50;9.80;;;-3.10;99.90;;;;;;5094770;28;20585;-78
2021/01/31 03:43:49;;;;;;;13.10;9.50;;;-3.10;99.90;;;;;;5094731;28;20185;-78
2021/01/31 03:46:21;;;;;;;12.23;9.05;;;-3.10;99.90;;;;;;5094626;28;20311;-78
2021/01/31 03:48:52;;;;;;;15.75;9.95;;;-3.10;99.90;;;;;;5094543;28;20626;-78
2021/01/31 03:51:19;;;;;;;15.10;8.75;;;-3.10;99.90;;;;;;5094149;28;20679;-78
2021/01/31 03:53:46;;;;;;;15.18;9.00;;;-3.10;99.90;;;;;;5094398;28;20547;-78
2021/01/31 03:56:16;;;;;;;12.60;9.00;;;-3.10;99.90;;;;;;5094585;28;20188;-78
2021/01/31 03:58:48;;;;;;;15.00;9.77;;;-3.10;99.90;;;;;;5094367;28;20271;-78
2021/01/31 04:01:14;;;;;;;15.85;11.15;;;-3.20;99.90;;;;;;5093534;28;20710;-78
2021/01/31 04:03:45;;;;;;;12.52;9.68;;;-3.20;99.90;;;;;;5092439;28;20198;-78
2021/01/31 04:06:17;;;;;;;12.18;9.10;;;-3.20;99.90;;;;;;5094364;28;20571;-78
2021/01/31 04:08:45;;;;;;;14.68;9.85;;;-3.20;99.90;;;;;;5094327;28;20184;-78
2021/01/31 04:11:11;;;;;;;14.02;10.00;;;-3.30;99.90;;;;;;5093600;28;20291;-79
2021/01/31 04:13:37;;;;;;;12.63;9.55;;;-3.30;99.90;;;;;;5093704;28;20342;-78
2021/01/31 04:16:06;;;;;;;13.05;8.63;;;-3.30;99.90;;;;;;5093955;28;20272;-78
2021/01/31 04:18:32;;;;;;;12.85;8.95;;;-3.30;99.90;;;;;;5093676;28;20185;-78
2021/01/31 04:20:59;;;;;;;11.07;8.38;;;-3.20;99.90;;;;;;5093935;28;20288;-79
2021/01/31 04:23:26;;;;;;;13.93;8.48;;;-3.20;99.90;;;;;;5094105;28;20653;-78
2021/01/31 04:25:52;;;;;;;12.23;8.15;;;-3.10;99.90;;;;;;5093816;28;20307;-78
2021/01/31 04:28:20;;;;;;;13.63;10.02;;;-3.00;99.90;;;;;;5093768;28;20224;-78
2021/01/31 04:30:50;;;;;;;12.65;9.13;;;-3.00;99.90;;;;;;5093739;28;20279;-78
2021/01/31 04:33:16;;;;;;;12.40;8.70;;;-2.90;99.90;;;;;;5092885;28;20310;-78
2021/01/31 04:35:43;;;;;;;11.40;8.40;;;-2.90;99.90;;;;;;5093764;28;20192;-78
2021/01/31 04:38:09;;;;;;;15.32;9.20;;;-2.90;99.90;;;;;;5093763;28;20196;-78
2021/01/31 04:40:36;;;;;;;14.57;8.90;;;-2.90;99.90;;;;;;5093566;28;20283;-78
2021/01/31 04:43:06;;;;;;;14.95;9.13;;;-2.90;99.90;;;;;;5093574;28;20283;-78
2021/01/31 04:45:39;;;;;;;13.15;9.05;;;-2.90;99.90;;;;;;5093617;28;20338;-78
2021/01/31 04:48:18;;;;;;;10.57;7.80;;;-2.90;99.90;;;;;;5093694;28;20218;-79
2021/01/31 04:50:52;;;;;;;12.60;8.52;;;-2.90;99.90;;;;;;5093461;28;20275;-78
2021/01/31 04:53:32;;;;;;;12.43;8.57;;;-3.00;99.90;;;;;;5093456;28;20275;-78
2021/01/31 04:56:11;;;;;;;11.23;8.32;;;-3.00;99.90;;;;;;5093521;28;20590;-78
2021/01/31 04:58:41;;;;;;;9.80;7.63;;;-3.00;99.90;;;;;;5093652;28;20789;-78
2021/01/31 05:01:16;;;;;;;9.95;7.50;;;-3.10;99.90;;;;;;5093447;28;20189;-78
2021/01/31 05:03:49;;;;;;;13.02;7.47;;;-3.20;99.90;;;;;;5093365;28;20341;-78
2021/01/31 05:06:17;;;;;;;11.05;6.97;;;-3.20;99.90;;;;;;5093116;28;20212;-78
2021/01/31 05:08:47;;;;;;;11.85;7.35;;;-3.20;99.90;;;;;;5093423;28;20231;-78
2021/01/31 05:11:21;;;;;;;11.30;7.18;;;-3.20;99.90;;;;;;5093245;28;20191;-78
2021/01/31 05:13:57;;;;;;;13.00;9.40;;;-3.20;99.90;;;;;;5093385;28;20192;-79
2021/01/31 05:16:23;;;;;;;11.25;7.60;;;-3.20;99.90;;;;;;5093165;28;20274;-79
2021/01/31 05:18:53;;;;;;;15.95;8.50;;;-3.20;99.90;;;;;;5092989;28;20641;-79
2021/01/31 05:21:24;;;;;;;13.07;8.75;;;-3.20;99.90;;;;;;5092892;28;20188;-79
2021/01/31 05:23:54;;;;;;;13.88;9.02;;;-3.20;99.90;;;;;;5092946;28;20735;-79
2021/01/31 05:26:22;;;;;;;15.20;9.50;;;-3.20;99.90;;;;;;5092924;28;20218;-79
2021/01/31 05:28:55;;;;;;;15.15;8.75;;;-3.30;99.90;;;;;;5092949;28;20272;-79
2021/01/31 05:31:26;;;;;;;14.00;7.82;;;-3.30;99.90;;;;;;5092633;28;20191;-79
2021/01/31 05:33:55;;;;;;;10.43;6.43;;;-3.30;99.90;;;;;;5092725;28;20279;-79
2021/01/31 05:36:22;;;;;;;8.88;6.38;;;-3.30;99.90;;;;;;5092860;28;20274;-78
2021/01/31 05:38:50;;;;;;;10.50;6.75;;;-3.40;99.90;;;;;;5092988;28;20220;-78
2021/01/31 05:41:45;;;;;;;10.48;6.65;;;-3.40;99.90;;;;;;5092699;28;20284;-79
2021/01/31 05:44:24;;;;;;;9.88;6.63;;;-3.50;99.90;;;;;;5093672;28;20246;-78
2021/01/31 05:46:53;;;;;;;10.30;6.78;;;-3.50;99.90;;;;;;5096910;28;20299;-78
2021/01/31 05:49:40;;;;;;;10.25;7.15;;;-3.50;99.90;;;;;;5097000;28;20184;-78
2021/01/31 05:52:31;;;;;;;13.43;6.88;;;-3.50;99.90;;;;;;5096720;28;20532;-78
2021/01/31 05:54:58;;;;;;;11.63;7.85;;;-3.50;99.90;;;;;;5096845;28;20216;-78
2021/01/31 05:57:27;;;;;;;11.25;7.40;;;-3.50;99.90;;;;;;5096689;28;20283;-78
2021/01/31 05:59:54;;;;;;;9.88;6.47;;;-3.50;99.90;;;;;;5096802;28;20273;-79
2021/01/31 06:02:23;;;;;;;12.38;7.75;;;-3.50;99.90;;;;;;5095993;28;20220;-79
2021/01/31 06:05:07;;;;;;;13.18;6.82;;;-3.50;99.90;;;;;;5095004;28;20240;-78
2021/01/31 06:07:33;;;;;;;11.35;6.80;;;-3.40;99.90;;;;;;5096647;28;20317;-78
2021/01/31 06:10:07;;;;;;;10.63;7.05;;;-3.30;99.90;;;;;;5096601;28;20644;-78
2021/01/31 06:12:35;;;;;;;12.30;6.97;;;-3.30;99.90;;;;;;5095953;28;20284;-78
2021/01/31 06:15:06;;;;;;;11.02;7.95;;;-3.30;99.90;;;;;;5095943;28;20195;-78
2021/01/31 06:17:33;;;;;;;13.20;7.72;;;-3.30;99.90;;;;;;5096520;28;20195;-78
2021/01/31 06:20:06;;;;;;;9.25;6.35;;;-3.20;99.90;;;;;;5096080;28;20243;-78
2021/01/31 06:22:40;;;;;;;10.52;7.18;;;-3.20;99.90;;;;;;5096414;28;20200;-79
2021/01/31 06:25:08;;;;;;;10.32;6.68;;;-3.30;99.90;;;;;;5096201;28;20275;-78
2021/01/31 06:27:36;;;;;;;11.20;6.40;;;-3.30;99.90;;;;;;5095987;28;20608;-78
2021/01/31 06:30:10;;;;;;;12.52;7.85;;;-3.30;99.90;;;;;;5095972;28;20693;-78
2021/01/31 06:32:37;;;;;;;11.68;6.57;;;-3.20;99.90;;;;;;5095876;28;20218;-78
2021/01/31 06:35:06;;;;;;;11.90;7.90;;;-3.20;99.90;;;;;;5096083;28;20284;-78
2021/01/31 06:37:42;;;;;;;12.48;7.60;;;-3.20;99.90;;;;;;5095980;28;20220;-78
2021/01/31 06:40:21;;;;;;;10.00;6.60;;;-3.10;99.90;;;;;;5095841;28;20325;-78
2021/01/31 06:42:57;;;;;;;13.40;7.70;;;-3.10;99.90;;;;;;5096041;28;20306;-78
2021/01/31 06:45:33;;;;;;;10.15;7.20;;;-3.10;99.90;;;;;;5095872;28;20216;-78
2021/01/31 06:48:11;;;;;;;10.98;7.88;;;-3.00;99.90;;;;;;5095773;28;20335;-79
2021/01/31 06:50:47;;;;;;;10.50;7.30;;;-3.10;99.90;;;;;;5094860;28;20287;-79
2021/01/31 06:53:33;;;;;;;13.63;8.65;;;-3.10;99.90;;;;;;5095107;28;20702;-79
2021/01/31 06:56:34;;;;;;;11.10;6.75;;;-3.10;99.90;;;;;;5095111;28;20773;-79
2021/01/31 06:59:26;;;;;;;10.77;7.95;;;-3.10;99.90;;;;;;5095120;28;20271;-79
2021/01/31 07:02:09;;;;;;;12.15;7.03;;;-3.10;99.90;;;;;;5095084;28;20666;-79
2021/01/31 07:05:02;;;;;;;12.82;6.95;;;-3.10;99.90;;;;;;5095534;28;20288;-78
2021/01/31 07:07:53;;;;;;;13.65;7.80;;;-3.10;99.90;;;;;;5093186;28;20276;-79
2021/01/31 07:10:53;;;;;;;11.95;7.18;;;-3.10;99.90;;;;;;5095574;28;20193;-79
2021/01/31 07:13:33;;;;;;;11.07;7.03;;;-3.10;99.90;;;;;;5095287;28;20198;-79
2021/01/31 07:16:07;;;;;;;14.30;6.70;;;-3.00;99.90;;;;;;5095403;28;20184;-78
2021/01/31 07:18:40;;;;;;;13.02;7.75;;;-3.00;99.90;;;;;;5095256;28;20279;-78
2021/01/31 07:21:15;;;;;;;10.85;6.28;;;-2.90;99.90;;;;;;5095218;28;20189;-78
2021/01/31 07:23:45;;;;;;;12.30;7.70;;;-2.90;99.90;;;;;;5094969;28;20188;-78
2021/01/31 07:26:32;;;;;;;12.88;7.30;;;-2.80;99.90;;;;;;5094990;28;20695;-79
2021/01/31 07:29:02;;;;;;;11.90;7.53;;;-2.80;99.90;;;;;;5095082;28;20237;-79
2021/01/31 07:31:43;;;;;;;13.30;7.57;;;-2.80;99.90;;;;;;5094731;28;20692;-78
2021/01/31 07:34:16;;;;;;;10.38;7.20;;;-2.80;99.90;;;;;;5094758;28;20245;-78
2021/01/31 07:36:59;;;;;;;13.18;7.43;;;-2.80;99.90;;;;;;5094845;28;20255;-78
2021/01/31 07:39:30;;;;;;;13.10;7.10;;;-2.70;99.90;;;;;;5094980;28;20193;-78
2021/01/31 07:41:57;;;;;;;13.93;7.10;;;-2.80;99.90;;;;;;5094697;28;20184;-78
2021/01/31 07:44:28;;;;;;;12.20;7.55;;;-2.70;99.90;;;;;;5094578;28;20661;-78
2021/01/31 07:46:57;;;;;;;10.35;5.60;;;-2.60;99.90;;;;;;5094819;28;20223;-78
2021/01/31 07:49:23;;;;;;;13.63;7.82;;;-2.60;99.90;;;;;;5094443;28;20279;-78
2021/01/31 07:52:06;;;;;;;13.57;7.90;;;-2.60;99.90;;;;;;5094720;28;20203;-78
2021/01/31 07:54:35;;;;;;;13.63;7.65;;;-2.50;99.90;;;;;;5094469;28;20295;-78
2021/01/31 07:57:28;;;;;;;11.23;6.55;;;-2.40;99.90;;;;;;5094336;28;20291;-79
2021/01/31 07:59:54;;;;;;;10.80;7.20;;;-2.40;99.90;;;;;;5094664;28;20195;-79
2021/01/31 08:02:36;;;;;;;11.13;7.45;;;-2.30;99.90;;;;;;5094277;28;20283;-79
2021/01/31 08:05:04;;;;;;;10.13;6.95;;;-2.30;99.90;;;;;;5093217;28;20230;-79
2021/01/31 08:08:00;;;;;;;11.02;6.65;;;-2.20;99.90;;;;;;5093114;28;20223;-79
2021/01/31 08:10:45;;;;;;;10.30;5.95;;;-2.10;99.90;;;;;;5094316;28;20287;-79
2021/01/31 08:13:12;;;;;;;11.65;6.90;;;-2.10;99.90;;;;;;5094209;28;20203;-78
2021/01/31 08:15:42;;;;;;;11.90;7.30;;;-2.00;99.90;;;;;;5094047;28;20285;-78
2021/01/31 08:18:12;;;;;;;14.45;7.65;;;-1.80;99.90;;;;;;5094199;28;20191;-78
2021/01/31 08:20:47;;;;;;;13.43;8.13;;;-1.70;99.90;;;;;;5093959;28;20185;-78
2021/01/31 08:23:45;;;;;;;12.80;7.95;;;-1.60;99.90;;;;;;5093989;28;20667;-78
2021/01/31 08:26:11;;;;;;;12.88;8.57;;;-1.50;99.90;;;;;;5093768;28;20640;-78
2021/01/31 08:28:38;;;;;;;16.50;8.25;;;-1.40;99.90;;;;;;5093952;28;20330;-78
2021/01/31 08:31:14;;;;;;;11.18;7.47;;;-1.40;99.90;;;;;;5093982;28;20185;-78
2021/01/31 08:33:41;;;;;;;11.10;7.43;;;-1.30;99.90;;;;;;5093629;28;20251;-84
2021/01/31 08:36:11;;;;;;;12.00;7.88;;;-1.30;99.90;;;;;;5093040;28;20660;-80
2021/01/31 08:38:41;;;;;;;14.80;8.35;;;-1.30;99.90;;;;;;5091066;28;20276;-81
2021/01/31 08:41:12;;;;;;;12.10;6.63;;;-1.30;99.90;;;;;;5091950;28;20185;-81
2021/01/31 08:43:42;;;;;;;12.40;7.60;;;-1.30;99.90;;;;;;5093625;28;20584;-80
2021/01/31 08:46:10;;;;;;;9.88;7.05;;;-1.20;99.90;;;;;;5093409;28;20682;-80
2021/01/31 08:48:37;;;;;;;12.50;7.63;;;-1.20;99.90;;;;;;5093363;28;20212;-79
2021/01/31 08:51:09;;;;;;;15.63;7.95;;;-1.20;99.90;;;;;;5092012;28;20210;-79
2021/01/31 08:53:35;;;;;;;11.93;7.45;;;-1.20;99.90;;;;;;5093616;28;20272;-80
2021/01/31 08:56:20;;;;;;;11.30;7.65;;;-1.10;99.90;;;;;;5093303;28;20192;-79
2021/01/31 08:58:46;;;;;;;11.75;7.10;;;-1.10;99.90;;;;;;5092971;28;20188;-79
2021/01/31 09:01:13;;;;;;;12.85;8.13;;;-1.10;99.90;;;;;;5092482;28;20198;-80
2021/01/31 09:03:41;;;;;;;10.98;7.38;;;-1.10;99.90;;;;;;5092305;28;20267;-80
2021/01/31 09:06:09;;;;;;;17.63;8.50;;;-1.10;99.90;;;;;;5093222;28;20235;-80
2021/01/31 09:08:35;;;;;;;12.38;7.50;;;-1.20;99.90;;;;;;5093135;28;20755;-80
2021/01/31 09:11:04;;;;;;;11.88;7.72;;;-1.20;99.90;;;;;;5093056;28;20853;-80
2021/01/31 09:13:32;;;;;;;13.68;7.75;;;-1.20;99.90;;;;;;5092886;28;20218;-81
2021/01/31 09:16:11;;;;;;;12.48;8.40;;;-1.30;99.90;;;;;;5092894;28;20283;-81
2021/01/31 09:18:37;;;;;;;12.45;8.10;;;-1.40;99.90;;;;;;5092770;28;20283;-81
2021/01/31 09:21:20;;;;;;;12.05;7.88;;;-1.50;99.90;;;;;;5093024;28;20197;-80
2021/01/31 09:23:47;;;;;;;15.07;7.32;;;-1.50;99.90;;;;;;5092920;28;20223;-81
2021/01/31 09:26:13;;;;;;;11.50;7.88;;;-1.60;99.90;;;;;;5092735;28;20332;-80
2021/01/31 09:28:41;;;;;;;11.90;7.18;;;-1.70;99.90;;;;;;5092501;28;20275;-81
2021/01/31 09:31:08;;;;;;;10.18;7.68;;;-1.70;99.90;;;;;;5092787;28;20283;-81
2021/01/31 09:33:38;;;;;;;13.85;8.98;;;-1.70;99.90;;;;;;5092531;28;20228;-81
2021/01/31 09:36:18;;;;;;;17.95;9.80;;;-1.70;99.90;;;;;;5092081;28;20185;-80
2021/01/31 09:38:46;;;;;;;17.40;10.02;;;-1.70;99.90;;;;;;5092189;28;20658;-78
2021/01/31 09:41:14;;;;;;;11.02;7.70;;;-1.70;99.90;;;;;;5091911;28;20184;-76
2021/01/31 09:43:42;;;;;;;14.00;8.27;;;-1.70;99.90;;;;;;5092457;28;20658;-77
2021/01/31 09:46:12;;;;;;;13.20;8.20;;;-1.70;99.90;;;;;;5092429;28;20329;-77
2021/01/31 09:48:39;;;;;;;17.25;8.88;;;-1.70;99.90;;;;;;5092625;28;20346;-79
2021/01/31 09:51:08;;;;;;;12.02;7.00;;;-1.70;99.90;;;;;;5092542;28;20211;-77
2021/01/31 09:53:38;;;;;;;12.98;7.88;;;-1.70;99.90;;;;;;5078309;28;20272;-77
2021/01/31 09:56:09;;;;;;;13.20;8.50;;;-1.60;99.90;;;;;;5091996;28;20643;-78
2021/01/31 09:58:41;;;;;;;12.88;8.40;;;-1.70;99.90;;;;;;5092655;28;20286;-78
2021/01/31 10:01:11;;;;;;;14.40;8.35;;;-1.70;99.90;;;;;;5091115;28;20207;-78
2021/01/31 10:03:38;;;;;;;12.07;8.43;;;-1.60;99.90;;;;;;5091921;28;20284;-79
2021/01/31 10:06:12;;;;;;;13.45;8.50;;;-1.60;99.90;;;;;;5091743;28;20291;-78
2021/01/31 10:08:47;;;;;;;13.30;9.02;;;-1.60;99.90;;;;;;5092219;28;20188;-78
2021/01/31 10:11:31;;;;;;;14.70;9.55;;;-1.60;99.90;;;;;;5090277;28;20314;-78
2021/01/31 10:13:58;;;;;;;16.25;8.68;;;-1.50;99.90;;;;;;5090803;28;20273;-79
2021/01/31 10:16:27;;;;;;;14.38;9.07;;;-1.50;99.90;;;;;;5091877;28;20659;-77
2021/01/31 10:18:53;;;;;;;16.38;9.48;;;-1.50;99.90;;;;;;5092263;28;20188;-78
2021/01/31 10:21:29;;;;;;;11.85;8.20;;;-1.40;99.90;;;;;;5092321;28;20275;-77
2021/01/31 10:24:05;;;;;;;13.15;8.70;;;-1.40;99.90;;;;;;5092382;28;20218;-76
2021/01/31 10:26:32;;;;;;;11.13;8.25;;;-1.30;99.90;;;;;;5092183;28;20295;-74
2021/01/31 10:29:01;;;;;;;12.75;8.00;;;-1.30;99.90;;;;;;5091807;28;20271;-75
2021/01/31 10:31:31;;;;;;;14.73;8.50;;;-1.30;99.90;;;;;;5094309;28;20185;-75
2021/01/31 10:33:59;;;;;;;15.05;9.52;;;-1.30;99.90;;;;;;5096049;28;20224;-75
2021/01/31 10:36:37;;;;;;;14.35;9.50;;;-1.30;99.90;;;;;;5095947;28;20345;-75
2021/01/31 10:39:25;;;;;;;13.38;9.05;;;-1.20;99.90;;;;;;5095570;28;20181;-75
2021/01/31 10:41:57;;;;;;;12.07;8.20;;;-1.20;99.90;;;;;;5095762;28;20193;-75
2021/01/31 10:44:25;;;;;;;12.98;9.45;;;-1.10;99.90;;;;;;5095767;28;20629;-75
2021/01/31 10:46:52;;;;;;;12.63;7.97;;;-1.10;99.90;;;;;;5095475;28;20245;-75
2021/01/31 10:49:18;;;;;;;13.50;8.98;;;-1.10;99.90;;;;;;5095636;28;20232;-75
2021/01/31 10:51:45;;;;;;;11.32;8.27;;;-1.00;99.90;;;;;;5095493;28;20608;-75
2021/01/31 10:54:12;;;;;;;10.75;8.35;;;-1.00;99.90;;;;;;5095323;28;20212;-75
2021/01/31 10:56:38;;;;;;;12.32;8.35;;;-1.00;99.90;;;;;;5095153;28;20726;-76
2021/01/31 10:59:06;;;;;;;12.57;9.50;;;-0.90;99.90;;;;;;5095517;28;20189;-76
2021/01/31 11:01:32;;;;;;;11.93;8.80;;;-0.90;99.90;;;;;;5094275;28;20545;-76
2021/01/31 11:03:59;;;;;;;13.70;9.35;;;-0.80;99.90;;;;;;5094895;28;20267;-75
2021/01/31 11:06:27;;;;;;;11.15;8.50;;;-0.90;99.90;;;;;;5095031;28;20319;-77
2021/01/31 11:08:53;;;;;;;11.60;8.32;;;-0.80;99.90;;;;;;5095100;28;20551;-75
2021/01/31 11:11:20;;;;;;;12.00;8.98;;;-0.80;99.90;;;;;;5095183;28;20279;-75
2021/01/31 11:13:47;;;;;;;14.10;8.88;;;-0.80;99.90;;;;;;5094921;28;20280;-75
2021/01/31 11:16:14;;;;;;;11.60;8.13;;;-0.80;99.90;;;;;;5094672;28;20275;-75
2021/01/31 11:18:40;;;;;;;12.20;8.40;;;-0.80;99.90;;;;;;5094943;28;20280;-75
2021/01/31 11:21:06;;;;;;;12.43;8.10;;;-0.70;99.90;;;;;;5094433;28;20640;-76
2021/01/31 11:23:32;;;;;;;12.07;9.00;;;-0.70;99.90;;;;;;5094520;28;20545;-77
2021/01/31 11:25:58;;;;;;;13.48;9.50;;;-0.60;99.90;;;;;;5094282;28;20705;-77
2021/01/31 11:28:24;;;;;;;10.30;8.30;;;-0.60;99.90;;;;;;5094626;28;20188;-77
2021/01/31 11:30:50;;;;;;;12.07;9.30;;;-0.60;99.90;;;;;;5094435;28;20535;-77
2021/01/31 11:33:17;;;;;;;14.68;9.80;;;-0.50;99.90;;;;;;5088771;28;20336;-75
2021/01/31 11:35:43;;;;;;;13.07;9.25;;;-0.50;99.90;;;;;;5093846;28;20711;-76
2021/01/31 11:38:09;;;;;;;12.15;8.25;;;-0.50;99.90;;;;;;5093711;28;20711;-75
2021/01/31 11:40:35;;;;;;;12.38;8.65;;;-0.40;99.90;;;;;;5093850;28;20275;-75
2021/01/31 11:43:01;;;;;;;13.27;8.75;;;-0.40;99.90;;;;;;5093947;28;20279;-75
2021/01/31 11:45:29;;;;;;;11.02;7.88;;;-0.40;99.90;;;;;;5091451;28;20272;-75
2021/01/31 11:47:56;;;;;;;11.85;9.15;;;-0.40;99.90;;;;;;5092633;28;20239;-77
2021/01/31 11:50:26;;;;;;;10.00;7.40;;;-0.40;99.90;;;;;;5092965;28;20187;-75
2021/01/31 11:52:52;;;;;;;12.82;8.10;;;-0.40;99.90;;;;;;5093757;28;20181;-75
2021/01/31 11:55:18;;;;;;;13.37;7.67;;;-0.30;99.90;;;;;;5091054;28;20184;-75
2021/01/31 11:57:45;;;;;;;11.38;9.02;;;-0.30;99.90;;;;;;5093673;28;20926;-75
2021/01/31 12:00:14;;;;;;;13.60;9.23;;;-0.30;99.90;;;;;;5093459;28;20280;-75
2021/01/31 12:02:40;;;;;;;11.57;7.85;;;-0.30;99.90;;;;;;5093154;28;20291;-77
2021/01/31 12:05:09;;;;;;;12.27;7.68;;;-0.30;99.90;;;;;;5091399;28;20275;-77
2021/01/31 12:07:36;;;;;;;11.23;8.80;;;-0.20;99.90;;;;;;5090994;28;20325;-75
2021/01/31 12:10:03;;;;;;;17.30;9.60;;;-0.20;99.90;;;;;;5088405;28;20283;-75
2021/01/31 12:12:29;;;;;;;16.88;9.48;;;-0.20;99.90;;;;;;5091375;28;20275;-77
2021/01/31 12:14:55;;;;;;;210.07;69.20;;;-0.30;99.90;;;;;;5083101;28;20551;-75
2021/01/31 12:17:21;;;;;;;50.77;20.30;;;-0.20;99.90;;;;;;5091346;28;20443;-75
2021/01/31 12:19:47;;;;;;;17.50;9.40;;;-0.20;99.90;;;;;;5092073;28;20929;-75
2021/01/31 12:22:13;;;;;;;11.00;7.43;;;-0.10;99.90;;;;;;5091421;28;20442;-75
2021/01/31 12:24:40;;;;;;;11.90;7.53;;;-0.10;99.90;;;;;;5093085;28;20496;-75
2021/01/31 12:27:06;;;;;;;9.07;6.15;;;-0.10;99.90;;;;;;5092850;28;20478;-75
2021/01/31 12:29:33;;;;;;;9.68;7.68;;;-0.10;99.90;;;;;;5092979;28;20314;-75
2021/01/31 12:31:59;;;;;;;10.18;6.45;;;-0.10;99.90;;;;;;5092863;28;20273;-75
2021/01/31 12:34:25;;;;;;;8.50;5.85;;;-0.10;99.90;;;;;;5093342;28;20187;-75
2021/01/31 12:36:51;;;;;;;9.38;6.45;;;-0.10;99.90;;;;;;5093032;28;20263;-75
2021/01/31 12:39:18;;;;;;;9.00;6.68;;;-0.10;99.90;;;;;;5093312;28;20181;-75
2021/01/31 12:41:44;;;;;;;10.40;6.72;;;-0.10;99.90;;;;;;5092309;28;20275;-74
2021/01/31 12:44:11;;;;;;;9.23;6.68;;;-0.10;99.90;;;;;;5092975;28;20196;-74
2021/01/31 12:46:38;;;;;;;9.83;5.30;;;-0.10;99.90;;;;;;5092586;28;20201;-75
2021/01/31 12:49:04;;;;;;;7.68;6.05;;;-0.10;99.90;;;;;;5093185;28;20438;-74
2021/01/31 12:51:30;;;;;;;8.50;6.45;;;-0.10;99.90;;;;;;5092689;28;20666;-75
2021/01/31 12:53:56;;;;;;;14.30;8.52;;;-0.10;99.90;;;;;;5092517;28;20184;-75